DEOGG EDSB-EDFM
Flight info
| Callsign | DEOGG |
|---|---|
| Flight time | 0h 22m |
| Altitude | 20000 |
| Route | GAGSI2Z GAGSI DCT BADLI DCT RINEX DCT KETEG |
| Aircraft | SF50/L-BDGRSWY/LB2U2 |
Departure
| Time | 2026-05-06 13:46 |
|---|---|
| Airport | Karlsruhe Baden-Baden Airport (EDSB) |
Arrival
| Time | 2026-05-06 14:09 |
|---|---|
| Airport | Mannheim-City Airport (EDFM) |
| Time | Latitude | Longitude | Altitude | Speed | Heading |
|---|---|---|---|---|---|
| 2026-05-06 13:23 | 48.78598 | 8.09283 | 410 ft | 0 kts | 121° |
| 2026-05-06 13:38 | 48.78597 | 8.09285 | 409 ft | 4 kts | 113° |
| 2026-05-06 13:38 | 48.78604 | 8.09234 | 409 ft | 13 kts | 208° |
| 2026-05-06 13:39 | 48.78494 | 8.09138 | 409 ft | 24 kts | 212° |
| 2026-05-06 13:39 | 48.78316 | 8.08960 | 410 ft | 33 kts | 212° |
| 2026-05-06 13:39 | 48.78242 | 8.08829 | 410 ft | 14 kts | 301° |
| 2026-05-06 13:39 | 48.78278 | 8.08728 | 410 ft | 7 kts | 301° |
| 2026-05-06 13:40 | 48.78303 | 8.08676 | 410 ft | 8 kts | 291° |
| 2026-05-06 13:40 | 48.78320 | 8.08612 | 410 ft | 12 kts | 297° |
| 2026-05-06 13:40 | 48.78374 | 8.08495 | 411 ft | 17 kts | 345° |
| 2026-05-06 13:40 | 48.78626 | 8.08699 | 410 ft | 82 kts | 32° |
| 2026-05-06 13:41 | 48.79533 | 8.09512 | 772 ft | 143 kts | 29° |
| 2026-05-06 13:41 | 48.79786 | 8.09792 | 959 ft | 144 kts | 42° |
| 2026-05-06 13:46 | 48.80114 | 8.10270 | 1403 ft | 152 kts | 44° |
| 2026-05-06 13:47 | 48.80981 | 8.11644 | 1556 ft | 213 kts | 51° |
| 2026-05-06 13:47 | 48.81940 | 8.13511 | 1830 ft | 243 kts | 51° |
| 2026-05-06 13:47 | 48.82895 | 8.15711 | 1898 ft | 249 kts | 60° |
| 2026-05-06 13:47 | 48.83660 | 8.17911 | 1962 ft | 225 kts | 64° |
| 2026-05-06 13:48 | 48.84577 | 8.19721 | 3072 ft | 208 kts | 34° |
| 2026-05-06 13:48 | 48.85840 | 8.20413 | 4503 ft | 182 kts | 4° |
| 2026-05-06 13:48 | 48.87038 | 8.20058 | 5622 ft | 178 kts | 333° |
| 2026-05-06 13:48 | 48.87953 | 8.18795 | 6508 ft | 181 kts | 301° |
| 2026-05-06 13:49 | 48.88303 | 8.16975 | 7404 ft | 183 kts | 270° |
| 2026-05-06 13:49 | 48.87990 | 8.15116 | 8251 ft | 185 kts | 240° |
| 2026-05-06 13:49 | 48.87089 | 8.13726 | 9054 ft | 188 kts | 211° |
| 2026-05-06 13:49 | 48.85846 | 8.13200 | 9819 ft | 192 kts | 182° |
| 2026-05-06 13:50 | 48.84550 | 8.13678 | 10568 ft | 196 kts | 153° |
| 2026-05-06 13:50 | 48.83546 | 8.15076 | 11290 ft | 200 kts | 124° |
| 2026-05-06 13:50 | 48.83084 | 8.17068 | 11985 ft | 204 kts | 96° |
| 2026-05-06 13:50 | 48.83288 | 8.19196 | 12650 ft | 207 kts | 69° |
| 2026-05-06 13:51 | 48.84122 | 8.20980 | 13302 ft | 210 kts | 41° |
| 2026-05-06 13:51 | 48.85410 | 8.22019 | 13935 ft | 212 kts | 14° |
| 2026-05-06 13:51 | 48.86881 | 8.22080 | 14542 ft | 214 kts | 348° |
| 2026-05-06 13:51 | 48.88231 | 8.21146 | 15124 ft | 216 kts | 322° |
| 2026-05-06 13:52 | 48.89178 | 8.19400 | 15680 ft | 217 kts | 296° |
| 2026-05-06 13:52 | 48.89528 | 8.17187 | 16221 ft | 218 kts | 270° |
| 2026-05-06 13:52 | 48.89205 | 8.14948 | 16744 ft | 219 kts | 245° |
| 2026-05-06 13:52 | 48.88267 | 8.13126 | 17238 ft | 222 kts | 219° |
| 2026-05-06 13:53 | 48.86892 | 8.12083 | 17713 ft | 224 kts | 194° |
| 2026-05-06 13:53 | 48.85335 | 8.12030 | 18171 ft | 227 kts | 169° |
| 2026-05-06 13:53 | 48.83888 | 8.12989 | 18611 ft | 230 kts | 145° |
| 2026-05-06 13:53 | 48.82820 | 8.14796 | 19036 ft | 233 kts | 121° |
| 2026-05-06 13:54 | 48.82315 | 8.17134 | 19451 ft | 236 kts | 97° |
| 2026-05-06 13:54 | 48.82447 | 8.19616 | 19842 ft | 239 kts | 75° |
| 2026-05-06 13:54 | 48.83196 | 8.21902 | 19993 ft | 251 kts | 53° |
| 2026-05-06 13:54 | 48.84501 | 8.23740 | 19996 ft | 263 kts | 33° |
| 2026-05-06 13:55 | 48.86209 | 8.24822 | 19996 ft | 271 kts | 13° |
| 2026-05-06 13:55 | 48.88081 | 8.25063 | 19996 ft | 272 kts | 359° |
| 2026-05-06 13:55 | 48.89958 | 8.25524 | 19990 ft | 277 kts | 19° |
| 2026-05-06 13:55 | 48.91623 | 8.26999 | 19991 ft | 280 kts | 39° |
| 2026-05-06 13:56 | 48.93071 | 8.28994 | 19995 ft | 282 kts | 42° |
| 2026-05-06 13:56 | 48.94598 | 8.30872 | 19994 ft | 284 kts | 34° |
| 2026-05-06 13:56 | 48.96321 | 8.32359 | 19993 ft | 285 kts | 26° |
| 2026-05-06 13:56 | 48.98108 | 8.33689 | 19995 ft | 287 kts | 27° |
| 2026-05-06 13:57 | 48.99860 | 8.35155 | 19995 ft | 288 kts | 30° |
| 2026-05-06 13:57 | 49.01594 | 8.36696 | 19996 ft | 289 kts | 30° |
| 2026-05-06 13:57 | 49.03319 | 8.38177 | 19997 ft | 290 kts | 28° |
| 2026-05-06 13:57 | 49.05102 | 8.39632 | 19996 ft | 290 kts | 26° |
| 2026-05-06 13:58 | 49.06874 | 8.41098 | 19996 ft | 289 kts | 30° |
| 2026-05-06 13:58 | 49.08596 | 8.42666 | 19995 ft | 289 kts | 30° |
| 2026-05-06 13:58 | 49.10348 | 8.44189 | 19995 ft | 290 kts | 29° |
| 2026-05-06 13:58 | 49.12120 | 8.45672 | 19996 ft | 291 kts | 28° |
| 2026-05-06 13:59 | 49.13888 | 8.47176 | 19997 ft | 291 kts | 29° |
| 2026-05-06 13:59 | 49.15654 | 8.48698 | 19997 ft | 292 kts | 29° |
| 2026-05-06 13:59 | 49.17426 | 8.50221 | 19998 ft | 292 kts | 29° |
| 2026-05-06 13:59 | 49.19202 | 8.51744 | 19997 ft | 293 kts | 29° |
| 2026-05-06 14:00 | 49.20974 | 8.53265 | 19997 ft | 292 kts | 29° |
| 2026-05-06 14:00 | 49.22749 | 8.54792 | 19998 ft | 292 kts | 29° |
| 2026-05-06 14:00 | 49.24526 | 8.56320 | 19933 ft | 294 kts | 29° |
| 2026-05-06 14:00 | 49.26285 | 8.57835 | 19441 ft | 288 kts | 29° |
| 2026-05-06 14:01 | 49.28003 | 8.59313 | 18781 ft | 275 kts | 29° |
| 2026-05-06 14:01 | 49.29631 | 8.60720 | 18105 ft | 264 kts | 29° |
| 2026-05-06 14:01 | 49.31186 | 8.62061 | 17436 ft | 257 kts | 29° |
| 2026-05-06 14:01 | 49.32729 | 8.63392 | 16763 ft | 252 kts | 29° |
| 2026-05-06 14:02 | 49.34255 | 8.64683 | 16097 ft | 248 kts | 26° |
| 2026-05-06 14:02 | 49.35778 | 8.65904 | 15415 ft | 247 kts | 30° |
| 2026-05-06 14:02 | 49.37237 | 8.67282 | 14741 ft | 245 kts | 31° |
| 2026-05-06 14:02 | 49.38859 | 8.67647 | 13845 ft | 246 kts | 345° |
| 2026-05-06 14:03 | 49.40441 | 8.66796 | 13626 ft | 225 kts | 339° |
| 2026-05-06 14:03 | 49.41736 | 8.65534 | 13010 ft | 225 kts | 314° |
| 2026-05-06 14:03 | 49.42556 | 8.63488 | 12341 ft | 228 kts | 287° |
| 2026-05-06 14:03 | 49.42496 | 8.61090 | 11663 ft | 231 kts | 249° |
| 2026-05-06 14:04 | 49.41456 | 8.59263 | 10978 ft | 230 kts | 210° |
| 2026-05-06 14:04 | 49.39912 | 8.58879 | 10278 ft | 229 kts | 170° |
| 2026-05-06 14:04 | 49.38557 | 8.60087 | 9530 ft | 230 kts | 132° |
| 2026-05-06 14:04 | 49.37982 | 8.62342 | 8770 ft | 232 kts | 93° |
| 2026-05-06 14:05 | 49.38444 | 8.64674 | 8004 ft | 232 kts | 55° |
| 2026-05-06 14:05 | 49.39737 | 8.66076 | 7240 ft | 230 kts | 17° |
| 2026-05-06 14:05 | 49.41262 | 8.66459 | 7008 ft | 207 kts | 4° |
| 2026-05-06 14:05 | 49.42698 | 8.66233 | 6371 ft | 209 kts | 337° |
| 2026-05-06 14:06 | 49.43693 | 8.64680 | 5559 ft | 209 kts | 309° |
| 2026-05-06 14:06 | 49.44797 | 8.63221 | 4739 ft | 204 kts | 322° |
| 2026-05-06 14:06 | 49.45924 | 8.61935 | 3803 ft | 200 kts | 319° |
| 2026-05-06 14:06 | 49.46880 | 8.60446 | 2862 ft | 195 kts | 312° |
| 2026-05-06 14:07 | 49.47179 | 8.59958 | 2514 ft | 198 kts | 312° |
| 2026-05-06 14:07 | 49.47680 | 8.58241 | 1686 ft | 187 kts | 266° |
| 2026-05-06 14:07 | 49.47395 | 8.56381 | 991 ft | 162 kts | 250° |
| 2026-05-06 14:07 | 49.47179 | 8.54908 | 759 ft | 121 kts | 264° |
| 2026-05-06 14:08 | 49.47193 | 8.53778 | 545 ft | 98 kts | 271° |
| 2026-05-06 14:08 | 49.47221 | 8.52808 | 422 ft | 84 kts | 272° |
| 2026-05-06 14:08 | 49.47250 | 8.51927 | 319 ft | 84 kts | 272° |
| 2026-05-06 14:08 | 49.47277 | 8.51099 | 310 ft | 63 kts | 274° |
| 2026-05-06 14:09 | 49.47290 | 8.50781 | 311 ft | 20 kts | 269° |
| 2026-05-06 14:09 | 49.47274 | 8.50694 | 311 ft | 7 kts | 130° |
| 2026-05-06 14:09 | 49.47252 | 8.50747 | 311 ft | 5 kts | 117° |
| 2026-05-06 14:09 | 49.47246 | 8.50772 | 311 ft | 2 kts | 103° |
| 2026-05-06 14:10 | 49.47241 | 8.50867 | 311 ft | 19 kts | 93° |
| 2026-05-06 14:10 | 49.47229 | 8.51141 | 311 ft | 33 kts | 94° |
| 2026-05-06 14:10 | 49.47212 | 8.51577 | 311 ft | 45 kts | 92° |
| 2026-05-06 14:10 | 49.47200 | 8.52020 | 311 ft | 23 kts | 94° |
| 2026-05-06 14:11 | 49.47233 | 8.52128 | 311 ft | 9 kts | 30° |
| 2026-05-06 14:11 | 49.47325 | 8.52151 | 311 ft | 13 kts | 4° |
| 2026-05-06 14:11 | 49.47441 | 8.52162 | 311 ft | 20 kts | 1° |
| 2026-05-06 14:11 | 49.47532 | 8.52166 | 311 ft | 3 kts | 2° |
| 2026-05-06 14:12 | 49.47583 | 8.52143 | 311 ft | 9 kts | 277° |
| 2026-05-06 14:12 | 49.47572 | 8.52084 | 311 ft | 2 kts | 175° |
| 2026-05-06 14:12 | 49.47559 | 8.52083 | 311 ft | 3 kts | 184° |
| 2026-05-06 14:12 | 49.47558 | 8.52083 | 311 ft | 0 kts | 184° |